Time;durP1;ratioP1;P1;durP2;ratioP2;P2;SDS_P1;SDS_P2;PMS_P1;PMS_P2;Temp;Humidity;BMP_temperature;BMP_pressure;BME280_temperature;BME280_humidity;BME280_pressure;Samples;Min_cycle;Max_cycle;Signal;HPM_P1;HPM_P2
2023/05/12 00:01:11;;;;;;;5.90;2.77;;;12.70;99.90;;;;;;5076835;28;20205;-59
2023/05/12 00:03:38;;;;;;;3.60;2.50;;;12.60;99.90;;;;;;5076090;28;20292;-60
2023/05/12 00:06:06;;;;;;;2.80;2.60;;;12.70;99.90;;;;;;5076198;28;20684;-59
2023/05/12 00:08:33;;;;;;;4.47;2.43;;;12.60;99.90;;;;;;5076651;28;20239;-59
2023/05/12 00:11:01;;;;;;;4.47;2.60;;;12.60;99.90;;;;;;5076612;28;20677;-59
2023/05/12 00:13:28;;;;;;;3.23;2.40;;;12.60;99.90;;;;;;5076335;28;20300;-59
2023/05/12 00:15:57;;;;;;;2.90;2.70;;;12.60;99.90;;;;;;5076446;28;20200;-59
2023/05/12 00:18:25;;;;;;;3.30;2.60;;;12.60;99.90;;;;;;5076521;28;20204;-59
2023/05/12 00:20:53;;;;;;;4.50;2.87;;;12.60;99.90;;;;;;5076245;28;20204;-59
2023/05/12 00:23:21;;;;;;;3.73;2.80;;;12.60;99.90;;;;;;5076335;28;20205;-60
2023/05/12 00:25:48;;;;;;;3.00;2.70;;;12.70;99.90;;;;;;5076279;28;20386;-60
2023/05/12 00:28:17;;;;;;;5.70;2.50;;;12.70;99.90;;;;;;5075883;28;20281;-61
2023/05/12 00:30:44;;;;;;;3.13;2.80;;;12.80;99.90;;;;;;5076406;28;20205;-60
2023/05/12 00:33:10;;;;;;;2.60;2.40;;;12.80;99.90;;;;;;5075903;28;20208;-60
2023/05/12 00:35:37;;;;;;;4.67;2.70;;;12.80;99.90;;;;;;5075768;28;20672;-60
2023/05/12 00:38:04;;;;;;;3.20;2.80;;;12.90;99.90;;;;;;5075737;28;20292;-60
2023/05/12 00:40:31;;;;;;;3.00;2.70;;;13.00;99.90;;;;;;5075761;28;20562;-60
2023/05/12 00:42:58;;;;;;;2.60;2.40;;;13.00;99.90;;;;;;5075325;28;20657;-60
2023/05/12 00:45:28;;;;;;;3.23;2.80;;;13.00;99.90;;;;;;5075718;28;20291;-59
2023/05/12 00:47:55;;;;;;;3.87;2.57;;;12.90;99.90;;;;;;5076354;28;20229;-60
2023/05/12 00:50:22;;;;;;;4.57;2.20;;;12.90;99.90;;;;;;5075600;28;20310;-60
2023/05/12 00:52:49;;;;;;;2.73;2.43;;;12.90;99.90;;;;;;5075883;28;20215;-60
2023/05/12 00:55:16;;;;;;;3.37;3.00;;;12.80;99.90;;;;;;5075409;28;20230;-60
2023/05/12 00:57:43;;;;;;;6.53;4.73;;;12.90;99.90;;;;;;5075915;28;20201;-60
2023/05/12 01:00:11;;;;;;;3.93;3.20;;;12.90;99.90;;;;;;5075793;28;20249;-60
2023/05/12 01:02:40;;;;;;;3.40;2.60;;;13.00;99.90;;;;;;5075975;28;20665;-60
2023/05/12 01:05:08;;;;;;;2.93;2.47;;;13.00;99.90;;;;;;5075137;28;20688;-60
2023/05/12 01:07:36;;;;;;;3.80;2.60;;;13.00;99.90;;;;;;5075766;28;20225;-60
2023/05/12 01:10:03;;;;;;;4.23;2.93;;;13.00;99.90;;;;;;5075416;28;20267;-60
2023/05/12 01:12:32;;;;;;;2.80;2.60;;;13.00;99.90;;;;;;5075293;28;20235;-60
2023/05/12 01:14:59;;;;;;;3.93;2.30;;;13.00;99.90;;;;;;5075193;28;20553;-60
2023/05/12 01:17:31;;;;;;;3.60;2.47;;;13.00;99.90;;;;;;5075740;28;20197;-60
2023/05/12 01:20:02;;;;;;;2.90;2.27;;;13.00;99.90;;;;;;5076142;28;20224;-60
2023/05/12 01:22:30;;;;;;;2.70;2.23;;;12.90;99.90;;;;;;5075553;28;20221;-60
2023/05/12 01:24:59;;;;;;;4.17;2.50;;;13.00;99.90;;;;;;5075077;28;20679;-60
2023/05/12 01:27:28;;;;;;;4.70;3.30;;;12.90;99.90;;;;;;5075074;28;20255;-60
2023/05/12 01:29:58;;;;;;;5.80;2.37;;;12.90;99.90;;;;;;5074978;28;20320;-60
2023/05/12 01:32:26;;;;;;;3.60;2.50;;;12.90;99.90;;;;;;5075548;28;20270;-61
2023/05/12 01:34:53;;;;;;;3.73;2.20;;;12.90;99.90;;;;;;5075226;28;20700;-59
2023/05/12 01:37:19;;;;;;;4.47;2.40;;;12.90;99.90;;;;;;5075989;28;20290;-60
2023/05/12 01:39:46;;;;;;;2.70;2.33;;;12.90;99.90;;;;;;5075202;28;20308;-60
2023/05/12 01:42:13;;;;;;;3.70;2.40;;;12.90;99.90;;;;;;5075722;28;20267;-60
2023/05/12 01:44:42;;;;;;;2.40;2.10;;;12.90;99.90;;;;;;5075248;28;20300;-60
2023/05/12 01:47:10;;;;;;;2.40;2.20;;;12.90;99.90;;;;;;5076411;28;20266;-60
2023/05/12 01:49:37;;;;;;;3.33;2.40;;;12.90;99.90;;;;;;5076456;28;20243;-59
2023/05/12 01:52:04;;;;;;;3.27;2.17;;;12.90;99.90;;;;;;5075985;28;20400;-60
2023/05/12 01:54:31;;;;;;;2.63;2.37;;;12.90;99.90;;;;;;5076130;28;20557;-60
2023/05/12 01:56:58;;;;;;;2.50;2.30;;;12.80;99.90;;;;;;5075058;28;20211;-60
2023/05/12 01:59:25;;;;;;;7.90;2.80;;;12.80;99.90;;;;;;5074229;28;20616;-59
2023/05/12 02:01:53;;;;;;;4.30;2.40;;;12.80;99.90;;;;;;5074285;28;20306;-60
2023/05/12 02:04:20;;;;;;;3.73;2.30;;;12.80;99.90;;;;;;5074324;28;20628;-59
2023/05/12 02:06:47;;;;;;;2.50;2.30;;;12.70;99.90;;;;;;5074364;28;20227;-60
2023/05/12 02:09:14;;;;;;;3.40;2.20;;;12.70;99.90;;;;;;5075144;28;20720;-59
2023/05/12 02:11:41;;;;;;;4.10;2.50;;;12.70;99.90;;;;;;5074566;28;20208;-59
2023/05/12 02:14:07;;;;;;;2.50;2.30;;;12.70;99.90;;;;;;5073827;28;20249;-60
2023/05/12 02:16:34;;;;;;;2.70;2.50;;;12.70;99.90;;;;;;5073988;28;20580;-59
2023/05/12 02:19:03;;;;;;;2.83;2.40;;;12.70;99.90;;;;;;5074544;28;20225;-60
2023/05/12 02:21:30;;;;;;;2.97;2.67;;;12.70;99.90;;;;;;5073711;28;20201;-60
2023/05/12 02:23:57;;;;;;;3.23;2.30;;;12.70;99.90;;;;;;5073983;28;20254;-59
2023/05/12 02:26:24;;;;;;;2.73;2.30;;;12.60;99.90;;;;;;5073698;28;20211;-59
2023/05/12 02:28:51;;;;;;;4.23;2.40;;;12.60;99.90;;;;;;5074030;28;20232;-59
2023/05/12 02:31:17;;;;;;;3.47;2.73;;;12.60;99.90;;;;;;5074240;28;20201;-59
2023/05/12 02:33:44;;;;;;;4.40;3.00;;;12.60;99.90;;;;;;5073419;28;20205;-60
2023/05/12 02:36:13;;;;;;;3.27;2.73;;;12.60;99.90;;;;;;5073825;28;20236;-59
2023/05/12 02:38:40;;;;;;;2.60;2.40;;;12.60;99.90;;;;;;5073726;28;20316;-59
2023/05/12 02:41:07;;;;;;;2.60;2.40;;;12.60;99.90;;;;;;5076568;28;20715;-59
2023/05/12 02:43:34;;;;;;;3.43;2.50;;;12.60;99.90;;;;;;5077560;28;20278;-59
2023/05/12 02:46:01;;;;;;;5.17;2.60;;;12.60;99.90;;;;;;5077681;28;20338;-59
2023/05/12 02:48:28;;;;;;;2.70;2.37;;;12.50;99.90;;;;;;5077512;28;20233;-59
2023/05/12 02:50:54;;;;;;;2.80;2.60;;;12.50;99.90;;;;;;5077878;28;20213;-59
2023/05/12 02:53:23;;;;;;;3.23;2.73;;;12.50;99.90;;;;;;5077661;28;20292;-59
2023/05/12 02:55:50;;;;;;;3.13;2.83;;;12.50;99.90;;;;;;5078681;28;20300;-59
2023/05/12 02:58:17;;;;;;;3.30;2.70;;;12.50;99.90;;;;;;5077516;28;20640;-59
2023/05/12 03:00:44;;;;;;;4.73;2.60;;;12.40;99.90;;;;;;5078444;28;20247;-59
2023/05/12 03:03:11;;;;;;;3.80;3.13;;;12.40;99.90;;;;;;5077525;28;20562;-61
2023/05/12 03:05:38;;;;;;;3.10;2.80;;;12.40;99.90;;;;;;5077780;28;20213;-60
2023/05/12 03:08:05;;;;;;;4.03;2.97;;;12.40;99.90;;;;;;5077561;28;20221;-60
2023/05/12 03:10:34;;;;;;;5.93;3.60;;;12.40;99.90;;;;;;5077888;28;20300;-59
2023/05/12 03:13:01;;;;;;;6.00;4.03;;;12.40;99.90;;;;;;5078095;28;20805;-60
2023/05/12 03:15:28;;;;;;;5.43;3.20;;;12.50;99.90;;;;;;5077910;28;20223;-60
2023/05/12 03:17:55;;;;;;;3.33;3.03;;;12.50;99.90;;;;;;5077502;28;20205;-60
2023/05/12 03:20:22;;;;;;;5.47;3.60;;;12.50;99.90;;;;;;5077459;28;20235;-59
2023/05/12 03:22:49;;;;;;;3.60;3.30;;;12.50;99.90;;;;;;5078834;28;20255;-59
2023/05/12 03:25:16;;;;;;;4.83;2.90;;;12.60;99.90;;;;;;5077615;28;20209;-60
2023/05/12 03:27:44;;;;;;;3.70;3.40;;;12.60;99.90;;;;;;5077354;28;20250;-60
2023/05/12 03:30:12;;;;;;;5.60;3.00;;;12.60;99.90;;;;;;5077140;28;20328;-60
2023/05/12 03:32:39;;;;;;;5.00;3.43;;;12.60;99.90;;;;;;5077875;28;20205;-60
2023/05/12 03:35:07;;;;;;;5.67;3.63;;;12.60;99.90;;;;;;5076792;28;20658;-60
2023/05/12 03:37:34;;;;;;;3.93;3.43;;;12.60;99.90;;;;;;5077009;28;20209;-60
2023/05/12 03:40:01;;;;;;;6.10;3.70;;;12.70;99.90;;;;;;5077375;28;20224;-59
2023/05/12 03:42:28;;;;;;;5.27;3.57;;;12.70;99.90;;;;;;5078249;28;20316;-60
2023/05/12 03:44:56;;;;;;;3.80;3.43;;;12.80;99.90;;;;;;5077528;28;20660;-60
2023/05/12 03:47:23;;;;;;;3.67;3.37;;;12.90;99.90;;;;;;5077236;28;20233;-60
2023/05/12 03:49:50;;;;;;;4.73;3.13;;;12.90;99.90;;;;;;5076745;28;20611;-60
2023/05/12 03:52:17;;;;;;;3.97;3.57;;;13.00;99.90;;;;;;5077906;28;20688;-61
2023/05/12 03:54:44;;;;;;;4.17;3.43;;;13.00;99.90;;;;;;5079260;28;20239;-60
2023/05/12 03:57:12;;;;;;;4.33;3.53;;;13.00;99.90;;;;;;5078818;28;20576;-60
2023/05/12 03:59:40;;;;;;;5.67;4.10;;;13.00;99.90;;;;;;5079693;28;20228;-60
2023/05/12 04:02:10;;;;;;;4.37;3.53;;;13.10;99.90;;;;;;5078542;28;20296;-60
2023/05/12 04:04:37;;;;;;;6.23;3.50;;;13.10;99.90;;;;;;5078706;28;20265;-59
2023/05/12 04:07:05;;;;;;;3.87;3.57;;;13.10;99.90;;;;;;5076719;28;20205;-59
2023/05/12 04:09:32;;;;;;;3.43;2.90;;;13.10;99.90;;;;;;5076731;28;20225;-60
2023/05/12 04:11:59;;;;;;;3.83;3.50;;;13.10;99.90;;;;;;5076990;28;20204;-60
2023/05/12 04:14:26;;;;;;;4.07;3.17;;;13.10;99.90;;;;;;5077730;28;20213;-59
2023/05/12 04:16:53;;;;;;;4.83;3.23;;;13.10;99.90;;;;;;5077400;28;20201;-60
2023/05/12 04:19:21;;;;;;;5.53;3.83;;;13.20;99.90;;;;;;5077883;28;20231;-59
2023/05/12 04:21:48;;;;;;;3.40;3.10;;;13.20;99.90;;;;;;5078381;28;20205;-59
2023/05/12 04:24:15;;;;;;;3.93;3.63;;;13.20;99.90;;;;;;5078893;28;20212;-59
2023/05/12 04:26:42;;;;;;;3.70;3.10;;;13.20;99.90;;;;;;5079581;28;20607;-60
2023/05/12 04:29:09;;;;;;;7.10;3.13;;;13.20;99.90;;;;;;5079355;28;20240;-60
2023/05/12 04:31:36;;;;;;;3.50;3.20;;;13.20;99.90;;;;;;5079636;28;20209;-60
2023/05/12 04:34:03;;;;;;;5.40;3.00;;;13.20;99.90;;;;;;5079604;28;20205;-59
2023/05/12 04:36:32;;;;;;;3.93;3.33;;;13.30;99.90;;;;;;5080643;28;20212;-60
2023/05/12 04:38:59;;;;;;;8.53;3.67;;;13.20;99.90;;;;;;5080776;28;20256;-59
2023/05/12 04:41:26;;;;;;;6.07;4.20;;;13.20;99.90;;;;;;5078876;28;20201;-60
2023/05/12 04:43:53;;;;;;;4.57;3.97;;;13.20;99.90;;;;;;5080698;28;20201;-61
2023/05/12 04:46:20;;;;;;;3.87;3.47;;;13.20;99.90;;;;;;5079595;28;20700;-59
2023/05/12 04:48:47;;;;;;;4.00;3.70;;;13.30;99.90;;;;;;5079333;28;20229;-59
2023/05/12 04:51:14;;;;;;;4.10;3.70;;;13.30;99.90;;;;;;5078706;28;20205;-59
2023/05/12 04:53:42;;;;;;;4.87;3.60;;;13.40;99.90;;;;;;5080687;28;20224;-59
2023/05/12 04:56:09;;;;;;;7.17;3.73;;;13.50;99.90;;;;;;5079240;28;20201;-59
2023/05/12 04:58:37;;;;;;;4.47;3.57;;;13.50;99.90;;;;;;5078820;28;20225;-60
2023/05/12 05:01:04;;;;;;;3.83;3.20;;;13.60;99.90;;;;;;5079225;28;20216;-59
2023/05/12 05:03:31;;;;;;;4.13;3.57;;;13.60;99.90;;;;;;5077826;28;20209;-60
2023/05/12 05:05:58;;;;;;;4.60;3.90;;;13.70;99.90;;;;;;5079672;28;20209;-59
2023/05/12 05:08:25;;;;;;;4.20;3.80;;;13.70;99.90;;;;;;5079096;28;20252;-60
2023/05/12 05:10:53;;;;;;;5.37;4.07;;;13.70;99.90;;;;;;5079155;28;20215;-59
2023/05/12 05:13:20;;;;;;;4.60;3.60;;;13.80;99.90;;;;;;5078555;28;20290;-59
2023/05/12 05:15:51;;;;;;;4.53;4.13;;;13.80;99.90;;;;;;5078729;28;20227;-60
2023/05/12 05:18:18;;;;;;;4.33;3.90;;;13.90;99.90;;;;;;5078337;28;20292;-60
2023/05/12 05:20:45;;;;;;;4.20;3.70;;;14.00;99.90;;;;;;5078278;28;20216;-60
2023/05/12 05:23:12;;;;;;;5.80;4.00;;;13.90;99.90;;;;;;5077780;28;20209;-60
2023/05/12 05:25:39;;;;;;;3.97;3.67;;;14.00;99.90;;;;;;5079024;28;20240;-60
2023/05/12 05:28:07;;;;;;;4.53;3.87;;;14.00;99.90;;;;;;5077553;28;20228;-60
2023/05/12 05:30:35;;;;;;;4.13;3.70;;;13.90;99.90;;;;;;5077359;28;20205;-59
2023/05/12 05:33:01;;;;;;;4.83;3.80;;;14.00;99.90;;;;;;5077164;28;20204;-60
2023/05/12 05:35:30;;;;;;;5.10;4.60;;;14.00;99.90;;;;;;5076776;28;20200;-59
2023/05/12 05:37:57;;;;;;;4.10;3.70;;;14.00;99.90;;;;;;5076896;28;20232;-60
2023/05/12 05:40:24;;;;;;;7.10;4.13;;;14.00;99.90;;;;;;5077375;28;20255;-60
2023/05/12 05:42:51;;;;;;;8.70;3.63;;;14.10;99.90;;;;;;5076816;28;20200;-59
2023/05/12 05:45:19;;;;;;;4.73;3.60;;;14.20;99.90;;;;;;5075961;28;20288;-60
2023/05/12 05:47:48;;;;;;;6.70;4.80;;;14.20;99.90;;;;;;5075033;28;20225;-59
2023/05/12 05:50:15;;;;;;;5.43;3.90;;;14.30;99.90;;;;;;5076572;28;20322;-61
2023/05/12 05:52:43;;;;;;;4.13;3.73;;;14.40;99.90;;;;;;5078272;28;20200;-59
2023/05/12 05:55:10;;;;;;;4.63;4.10;;;14.40;99.90;;;;;;5076407;28;20201;-59
2023/05/12 05:57:36;;;;;;;4.73;4.33;;;14.50;99.90;;;;;;5075962;28;20589;-59
2023/05/12 06:00:04;;;;;;;5.63;4.23;;;14.60;99.90;;;;;;5075333;28;20758;-59
2023/05/12 06:02:33;;;;;;;6.57;4.27;;;14.70;99.90;;;;;;5076542;28;20212;-60
2023/05/12 06:05:00;;;;;;;4.47;4.07;;;14.80;99.90;;;;;;5075517;28;20262;-59
2023/05/12 06:07:27;;;;;;;4.67;4.17;;;14.90;99.90;;;;;;5075244;28;20237;-59
2023/05/12 06:09:54;;;;;;;4.13;3.73;;;14.90;99.90;;;;;;5074881;28;20313;-59
2023/05/12 06:12:21;;;;;;;7.00;6.13;;;15.00;99.90;;;;;;5076276;28;20205;-59
2023/05/12 06:14:48;;;;;;;4.30;3.90;;;15.10;99.90;;;;;;5077363;28;20325;-60
2023/05/12 06:17:15;;;;;;;5.77;4.40;;;15.10;99.90;;;;;;5079068;28;20247;-60
2023/05/12 06:19:46;;;;;;;6.00;4.80;;;15.20;99.90;;;;;;5078124;28;20592;-60
2023/05/12 06:22:13;;;;;;;4.30;3.90;;;15.30;99.90;;;;;;5078929;28;20209;-59
2023/05/12 06:24:40;;;;;;;6.80;4.13;;;15.40;99.90;;;;;;5079047;28;20239;-59
2023/05/12 06:27:07;;;;;;;5.00;4.50;;;15.40;99.90;;;;;;5078468;28;20209;-59
2023/05/12 06:29:33;;;;;;;4.40;4.00;;;15.60;99.90;;;;;;5078594;28;20298;-59
2023/05/12 06:32:00;;;;;;;5.63;3.93;;;15.60;99.90;;;;;;5078276;28;20201;-60
2023/05/12 06:34:28;;;;;;;5.53;3.97;;;15.60;99.90;;;;;;5078470;28;20236;-59
2023/05/12 06:36:56;;;;;;;5.03;4.37;;;15.60;99.90;;;;;;5078145;28;20218;-59
2023/05/12 06:39:23;;;;;;;4.30;3.50;;;15.60;99.90;;;;;;5078307;28;20228;-60
2023/05/12 06:41:50;;;;;;;5.70;3.57;;;15.70;99.90;;;;;;5078161;28;20499;-59
2023/05/12 06:44:17;;;;;;;4.33;3.93;;;15.90;99.90;;;;;;5078884;28;20762;-59
2023/05/12 06:46:43;;;;;;;6.00;3.30;;;16.00;99.90;;;;;;5078284;28;20212;-60
2023/05/12 06:49:10;;;;;;;4.07;3.70;;;16.00;99.90;;;;;;5077210;28;20267;-60
2023/05/12 06:51:37;;;;;;;4.13;3.30;;;16.10;99.90;;;;;;5077772;28;20296;-59
2023/05/12 06:54:06;;;;;;;3.03;2.60;;;16.30;99.90;;;;;;5077641;28;20198;-59
2023/05/12 06:56:33;;;;;;;3.23;2.93;;;16.30;99.90;;;;;;5077144;28;20622;-60
2023/05/12 06:59:01;;;;;;;3.30;3.00;;;16.40;99.90;;;;;;5076651;28;20231;-59
2023/05/12 07:01:29;;;;;;;3.60;3.17;;;16.30;99.90;;;;;;5076478;28;20205;-60
2023/05/12 07:03:55;;;;;;;3.67;3.30;;;16.40;99.90;;;;;;5075998;28;20414;-60
2023/05/12 07:06:23;;;;;;;3.60;3.30;;;16.40;99.90;;;;;;5076035;28;20691;-59
2023/05/12 07:08:50;;;;;;;3.47;2.97;;;16.20;99.90;;;;;;5077620;28;20229;-60
2023/05/12 07:11:18;;;;;;;4.63;3.10;;;16.20;99.90;;;;;;5076868;28;20201;-59
2023/05/12 07:13:46;;;;;;;4.28;3.42;;;16.40;99.90;;;;;;5076558;28;20212;-59
2023/05/12 07:16:13;;;;;;;3.50;3.20;;;16.30;99.90;;;;;;5076851;28;20263;-60
2023/05/12 07:18:40;;;;;;;3.10;2.80;;;16.40;99.90;;;;;;5076684;28;20308;-60
2023/05/12 07:21:07;;;;;;;3.78;2.80;;;16.70;99.90;;;;;;5076673;28;20286;-60
2023/05/12 07:23:34;;;;;;;4.10;2.60;;;17.00;99.90;;;;;;5075943;28;20209;-60
2023/05/12 07:26:01;;;;;;;6.45;3.35;;;17.30;99.90;;;;;;5076297;28;20208;-60
2023/05/12 07:28:31;;;;;;;3.10;2.80;;;17.50;99.90;;;;;;5076836;28;20237;-60
2023/05/12 07:30:58;;;;;;;3.30;3.00;;;17.80;99.90;;;;;;5076837;28;20205;-60
2023/05/12 07:33:25;;;;;;;3.72;2.83;;;18.00;99.90;;;;;;5077122;28;20200;-60
2023/05/12 07:35:52;;;;;;;3.10;2.80;;;18.40;99.90;;;;;;5077187;28;20209;-60
2023/05/12 07:38:19;;;;;;;2.95;2.75;;;19.00;99.90;;;;;;5078144;28;20288;-60
2023/05/12 07:40:46;;;;;;;2.85;2.65;;;19.40;99.90;;;;;;5077669;28;20278;-62
2023/05/12 07:43:13;;;;;;;5.13;3.92;;;19.60;99.90;;;;;;5078182;28;20201;-61
2023/05/12 07:45:41;;;;;;;3.33;2.85;;;19.30;99.90;;;;;;5078137;28;20217;-60
2023/05/12 07:48:09;;;;;;;4.55;3.13;;;18.80;99.90;;;;;;5077052;28;20301;-62
2023/05/12 07:50:36;;;;;;;3.45;2.90;;;18.70;99.90;;;;;;5078457;28;20846;-63
2023/05/12 07:53:04;;;;;;;3.95;3.55;;;18.70;99.90;;;;;;5079046;28;20315;-60
2023/05/12 07:55:32;;;;;;;3.65;3.10;;;18.60;99.90;;;;;;5078372;28;20215;-60
2023/05/12 07:57:59;;;;;;;3.50;3.00;;;18.60;99.90;;;;;;5072556;28;20216;-58
2023/05/12 08:00:26;;;;;;;11.52;9.10;;;18.70;99.90;;;;;;5074737;28;20232;-59
2023/05/12 08:02:56;;;;;;;4.00;3.25;;;18.40;99.90;;;;;;5077148;28;20293;-62
2023/05/12 08:05:23;;;;;;;3.40;3.10;;;18.20;99.90;;;;;;5077170;28;20296;-62
2023/05/12 08:07:49;;;;;;;3.83;3.22;;;18.10;99.90;;;;;;5077239;28;20208;-65
2023/05/12 08:10:18;;;;;;;3.70;3.30;;;17.90;99.90;;;;;;5076322;28;20252;-62
2023/05/12 08:12:45;;;;;;;4.22;3.55;;;18.00;99.90;;;;;;5076405;28;20304;-60
2023/05/12 08:15:12;;;;;;;3.80;3.50;;;17.80;99.90;;;;;;5076406;28;20215;-63
2023/05/12 08:17:39;;;;;;;3.70;3.40;;;17.50;99.90;;;;;;5076653;28;20205;-62
2023/05/12 08:20:09;;;;;;;3.40;3.10;;;17.40;99.90;;;;;;5073143;28;20233;-64
2023/05/12 08:22:35;;;;;;;5.18;3.35;;;17.30;99.90;;;;;;5074772;28;20197;-60
2023/05/12 08:25:02;;;;;;;5.70;3.50;;;17.50;99.90;;;;;;5075920;28;20205;-63
2023/05/12 08:27:29;;;;;;;4.00;3.60;;;17.50;99.90;;;;;;5076246;28;20738;-61
2023/05/12 08:29:56;;;;;;;3.80;3.00;;;17.50;99.90;;;;;;5075237;28;20235;-60
2023/05/12 08:32:23;;;;;;;6.15;4.10;;;17.70;99.90;;;;;;5074087;28;20713;-60
2023/05/12 08:34:50;;;;;;;4.30;3.90;;;18.00;99.90;;;;;;5075669;28;20250;-62
2023/05/12 08:37:18;;;;;;;4.50;4.10;;;18.20;99.90;;;;;;5074499;28;20213;-60
2023/05/12 08:39:45;;;;;;;4.68;4.28;;;18.70;99.90;;;;;;5074804;28;20224;-61
2023/05/12 08:42:30;;;;;;;4.78;4.00;;;19.00;99.90;;;;;;5075401;28;20220;-61
2023/05/12 08:44:59;;;;;;;4.18;3.88;;;19.10;99.90;;;;;;5075779;28;20204;-61
2023/05/12 08:47:27;;;;;;;4.53;3.50;;;19.30;99.90;;;;;;5077628;28;20502;-61
2023/05/12 08:50:00;;;;;;;3.30;3.00;;;19.70;99.90;;;;;;5075320;28;20323;-65
2023/05/12 08:52:30;;;;;;;3.60;3.30;;;20.50;99.90;;;;;;5076438;28;20208;-62
2023/05/12 08:54:57;;;;;;;3.40;3.10;;;20.90;99.90;;;;;;5077094;28;20216;-62
2023/05/12 08:57:24;;;;;;;3.05;2.80;;;21.10;99.90;;;;;;5075935;28;20229;-63
2023/05/12 08:59:54;;;;;;;3.72;3.00;;;21.70;99.90;;;;;;5076309;28;20224;-62
2023/05/12 09:02:21;;;;;;;3.67;3.35;;;21.80;99.90;;;;;;5075977;28;20696;-62
2023/05/12 09:04:48;;;;;;;3.55;2.90;;;21.30;99.90;;;;;;5075980;28;20208;-62
2023/05/12 09:07:17;;;;;;;3.15;2.75;;;21.10;99.90;;;;;;5075587;28;20212;-61
2023/05/12 09:09:47;;;;;;;2.63;2.42;;;21.20;99.90;;;;;;5074725;28;20279;-64
2023/05/12 09:12:20;;;;;;;3.15;2.78;;;21.10;99.90;;;;;;5076333;28;20296;-61
2023/05/12 09:14:52;;;;;;;2.92;2.40;;;20.70;99.90;;;;;;5074785;28;20227;-61
2023/05/12 09:17:19;;;;;;;3.60;2.45;;;20.20;99.90;;;;;;5075179;28;20201;-63
2023/05/12 09:19:46;;;;;;;3.75;2.40;;;20.00;99.90;;;;;;5075593;28;20239;-61
2023/05/12 09:22:14;;;;;;;3.58;2.20;;;19.50;99.90;;;;;;5075004;28;20208;-62
2023/05/12 09:24:41;;;;;;;2.92;2.33;;;18.90;99.90;;;;;;5074101;28;20582;-59
2023/05/12 09:27:09;;;;;;;2.67;2.47;;;18.40;99.90;;;;;;5072346;28;20213;-58
2023/05/12 09:29:47;;;;;;;5.68;3.35;;;18.10;99.90;;;;;;5071702;28;20320;-58
2023/05/12 09:32:14;;;;;;;5.53;3.35;;;17.80;99.90;;;;;;5072461;28;20240;-58
2023/05/12 09:34:40;;;;;;;4.07;3.20;;;17.40;99.90;;;;;;5071739;28;20213;-58
2023/05/12 09:37:08;;;;;;;3.33;3.00;;;17.20;99.90;;;;;;5075544;28;20213;-60
2023/05/12 09:39:36;;;;;;;4.47;3.40;;;17.10;99.90;;;;;;5075067;28;20781;-60
2023/05/12 09:42:02;;;;;;;4.15;3.20;;;16.80;99.90;;;;;;5072779;28;20220;-60
2023/05/12 09:44:32;;;;;;;4.68;3.10;;;16.50;99.90;;;;;;5073168;28;20308;-58
2023/05/12 09:47:06;;;;;;;5.05;3.42;;;16.40;99.90;;;;;;5073853;28;20200;-60
2023/05/12 09:49:33;;;;;;;3.30;3.00;;;16.30;99.90;;;;;;5077816;28;20274;-62
2023/05/12 09:52:00;;;;;;;3.38;3.00;;;16.50;99.90;;;;;;5079550;28;20220;-61
2023/05/12 09:54:27;;;;;;;5.25;3.55;;;16.70;99.90;;;;;;5079661;28;20232;-61
2023/05/12 09:56:58;;;;;;;3.53;2.85;;;16.80;99.90;;;;;;5079677;28;20268;-61
2023/05/12 09:59:29;;;;;;;4.22;3.05;;;16.80;99.90;;;;;;5079959;28;20284;-62
2023/05/12 10:02:00;;;;;;;10.25;3.40;;;17.00;99.90;;;;;;5079959;28;20281;-61
2023/05/12 10:04:28;;;;;;;3.53;2.92;;;17.30;99.90;;;;;;5079631;28;20254;-62
2023/05/12 10:06:57;;;;;;;2.95;2.72;;;17.80;99.90;;;;;;5079414;28;20737;-62
2023/05/12 10:09:28;;;;;;;3.97;3.20;;;17.90;99.90;;;;;;5079523;28;20704;-60
2023/05/12 10:11:56;;;;;;;4.22;3.50;;;18.20;99.90;;;;;;5080335;28;20292;-62
2023/05/12 10:14:24;;;;;;;3.35;2.90;;;18.40;99.90;;;;;;5079846;28;20232;-61
2023/05/12 10:16:51;;;;;;;3.92;2.78;;;18.60;99.90;;;;;;5080059;28;20215;-61
2023/05/12 10:19:21;;;;;;;2.60;2.40;;;18.60;99.90;;;;;;5079308;28;20228;-62
2023/05/12 10:21:48;;;;;;;3.85;2.67;;;18.60;99.90;;;;;;5079473;28;20588;-62
2023/05/12 10:24:16;;;;;;;2.30;2.05;;;18.60;99.90;;;;;;5079197;28;20232;-62
2023/05/12 10:26:44;;;;;;;3.20;2.90;;;18.60;99.90;;;;;;5078958;28;20211;-62
2023/05/12 10:29:12;;;;;;;3.65;2.67;;;18.70;99.90;;;;;;5079473;28;20646;-62
2023/05/12 10:31:39;;;;;;;2.83;2.63;;;18.70;99.90;;;;;;5079246;28;20211;-61
2023/05/12 10:34:06;;;;;;;3.00;2.70;;;18.80;99.90;;;;;;5078416;28;20209;-62
2023/05/12 10:36:46;;;;;;;3.08;2.70;;;18.70;99.90;;;;;;5078747;28;20291;-61
2023/05/12 10:39:15;;;;;;;3.20;2.90;;;18.50;99.90;;;;;;5078678;28;20573;-61
2023/05/12 10:41:42;;;;;;;3.97;3.00;;;18.40;99.90;;;;;;5078679;28;20203;-61
2023/05/12 10:44:09;;;;;;;3.08;2.70;;;18.30;99.90;;;;;;5078329;28;20251;-61
2023/05/12 10:46:36;;;;;;;2.80;2.60;;;18.00;99.90;;;;;;5078485;28;20209;-61
2023/05/12 10:49:07;;;;;;;3.22;2.60;;;17.80;99.90;;;;;;5078408;28;20220;-61
2023/05/12 10:51:45;;;;;;;3.65;2.33;;;17.60;99.90;;;;;;5079240;28;20209;-61
2023/05/12 10:54:21;;;;;;;2.70;2.50;;;17.60;99.90;;;;;;5079032;28;20204;-61
2023/05/12 10:56:48;;;;;;;2.92;2.70;;;17.40;99.90;;;;;;5079019;28;20273;-61
2023/05/12 10:59:17;;;;;;;3.15;2.85;;;17.30;99.90;;;;;;5078510;28;20228;-61
2023/05/12 11:01:57;;;;;;;2.88;2.67;;;17.30;99.90;;;;;;5077677;28;20212;-61
2023/05/12 11:04:36;;;;;;;5.35;3.10;;;17.20;99.90;;;;;;5078670;28;20204;-61
2023/05/12 11:07:05;;;;;;;5.55;2.80;;;17.30;99.90;;;;;;5079140;28;20296;-63
2023/05/12 11:09:35;;;;;;;5.28;2.75;;;17.40;99.90;;;;;;5079306;28;20316;-61
2023/05/12 11:12:03;;;;;;;2.40;2.20;;;17.50;99.90;;;;;;5079654;28;20255;-60
2023/05/12 11:14:30;;;;;;;2.35;2.15;;;17.50;99.90;;;;;;5079160;28;20208;-61
2023/05/12 11:16:57;;;;;;;1.75;1.65;;;17.80;99.90;;;;;;5079497;28;20220;-61
2023/05/12 11:19:23;;;;;;;2.10;1.90;;;18.10;99.90;;;;;;5080230;28;20224;-61
2023/05/12 11:21:50;;;;;;;1.92;1.80;;;18.50;99.90;;;;;;5081026;28;20295;-61
2023/05/12 11:24:17;;;;;;;2.35;2.03;;;19.10;99.90;;;;;;5080340;28;20201;-61
2023/05/12 11:26:50;;;;;;;1.85;1.75;;;19.70;99.90;;;;;;5080859;28;20208;-61
2023/05/12 11:29:17;;;;;;;2.30;2.08;;;20.30;99.90;;;;;;5080654;28;20679;-61
2023/05/12 11:31:47;;;;;;;3.05;2.05;;;20.70;99.90;;;;;;5081151;28;20236;-61
2023/05/12 11:34:15;;;;;;;3.17;1.65;;;21.00;99.90;;;;;;5079956;28;20213;-61
2023/05/12 11:36:44;;;;;;;1.52;1.42;;;21.30;99.90;;;;;;5080905;28;20583;-61
2023/05/12 11:39:16;;;;;;;1.90;1.80;;;21.40;99.90;;;;;;5081752;28;20228;-61
2023/05/12 11:41:44;;;;;;;2.60;2.30;;;21.50;99.90;;;;;;5081403;28;20232;-61
2023/05/12 11:44:15;;;;;;;2.00;1.80;;;21.60;99.90;;;;;;5078876;28;20652;-61
2023/05/12 11:46:53;;;;;;;2.17;1.90;;;21.60;99.90;;;;;;5079087;28;20263;-62
2023/05/12 11:49:19;;;;;;;1.80;1.70;;;21.60;99.90;;;;;;5078388;28;20298;-62
2023/05/12 11:51:47;;;;;;;2.03;1.73;;;21.70;99.90;;;;;;5078912;28;20219;-63
2023/05/12 11:54:15;;;;;;;3.22;1.80;;;21.60;99.90;;;;;;5077932;28;20608;-61
2023/05/12 11:56:49;;;;;;;1.90;1.70;;;21.50;99.90;;;;;;5077737;28;20209;-61
2023/05/12 11:59:27;;;;;;;3.45;2.10;;;21.10;99.90;;;;;;5078234;28;20239;-60
2023/05/12 12:01:54;;;;;;;2.45;2.25;;;20.90;99.90;;;;;;5077864;28;20209;-61
2023/05/12 12:04:32;;;;;;;2.70;2.40;;;20.60;99.90;;;;;;5077426;28;20205;-61
2023/05/12 12:07:00;;;;;;;2.92;2.72;;;20.50;99.90;;;;;;5076954;28;20218;-62
2023/05/12 12:09:31;;;;;;;3.33;3.03;;;20.50;99.90;;;;;;5077432;28;20514;-62
2023/05/12 12:12:00;;;;;;;3.42;3.10;;;20.50;99.90;;;;;;5077072;28;20209;-61
2023/05/12 12:14:26;;;;;;;3.53;3.10;;;20.40;99.90;;;;;;5076624;28;20665;-63
2023/05/12 12:16:53;;;;;;;3.50;3.20;;;20.40;99.90;;;;;;5076646;28;20239;-59
2023/05/12 12:19:20;;;;;;;3.50;3.20;;;20.20;99.90;;;;;;5076379;28;20327;-62
2023/05/12 12:21:47;;;;;;;6.53;3.47;;;20.10;99.90;;;;;;5076539;28;20284;-61
2023/05/12 12:24:14;;;;;;;3.80;3.47;;;20.00;99.90;;;;;;5076139;28;20236;-61
2023/05/12 12:26:41;;;;;;;3.30;3.00;;;19.90;99.90;;;;;;5076583;28;20262;-61
2023/05/12 12:29:09;;;;;;;3.50;3.20;;;19.80;99.90;;;;;;5075758;28;20272;-60
2023/05/12 12:31:36;;;;;;;6.15;3.05;;;19.60;99.90;;;;;;5075932;28;20803;-60
2023/05/12 12:34:04;;;;;;;3.63;3.20;;;19.50;99.90;;;;;;5075415;28;20205;-61
2023/05/12 12:36:32;;;;;;;4.75;3.30;;;19.30;99.90;;;;;;5075458;28;20262;-61
2023/05/12 12:38:58;;;;;;;4.10;3.70;;;19.10;99.90;;;;;;5075213;28;20224;-61
2023/05/12 12:41:25;;;;;;;4.95;3.63;;;19.00;99.90;;;;;;5075626;28;20688;-61
2023/05/12 12:43:52;;;;;;;3.88;3.50;;;18.80;99.90;;;;;;5074482;28;20638;-61
2023/05/12 12:46:21;;;;;;;3.40;3.10;;;18.60;99.90;;;;;;5075235;28;20201;-61
2023/05/12 12:48:47;;;;;;;6.05;3.88;;;18.30;99.90;;;;;;5075429;28;20224;-62
2023/05/12 12:51:14;;;;;;;4.10;3.72;;;18.00;99.90;;;;;;5074666;28;20719;-65